createdAt,value
2023-02-20T00:00:01.144Z,9.05
2023-02-20T00:05:01.195Z,8.79
2023-02-20T00:10:01.241Z,9.38
2023-02-20T00:15:01.150Z,9.64
2023-02-20T00:20:01.004Z,9.46
2023-02-20T00:25:00.837Z,9.38
2023-02-20T00:30:00.784Z,9.64
2023-02-20T00:35:00.659Z,9.58
2023-02-20T00:40:03.878Z,9.71
2023-02-20T00:45:14.769Z,9.78
2023-02-20T00:50:00.610Z,9.96
2023-02-20T00:55:00.551Z,10.07
2023-02-20T01:00:00.400Z,9.93
2023-02-20T01:05:00.327Z,9.28
2023-02-20T01:10:00.292Z,9.34
2023-02-20T01:15:00.214Z,9.70
2023-02-20T01:20:00.385Z,9.70
2023-02-20T01:25:00.186Z,9.30
2023-02-20T01:29:59.925Z,9.49
2023-02-20T01:34:59.917Z,8.94
2023-02-20T01:40:03.166Z,9.25
2023-02-20T01:45:00.331Z,8.97
2023-02-20T01:49:59.836Z,9.38
2023-02-20T01:54:59.844Z,9.64
2023-02-20T01:59:59.738Z,9.30
2023-02-20T02:04:59.930Z,9.52
2023-02-20T02:09:59.772Z,9.81
2023-02-20T02:14:59.753Z,9.20
2023-02-20T02:19:59.416Z,9.34
2023-02-20T02:24:59.797Z,8.94
2023-02-20T02:29:59.281Z,9.16
2023-02-20T02:34:59.372Z,9.23
2023-02-20T02:40:02.253Z,9.39
2023-02-20T02:44:58.954Z,9.13
2023-02-20T02:49:58.937Z,9.48
2023-02-20T02:54:59.159Z,9.02
2023-02-20T07:40:53.299Z,10.25
2023-02-20T07:45:53.260Z,10.80
2023-02-20T08:12:57.620Z,11.32
2023-02-20T08:18:09.904Z,12.06
2023-02-20T09:54:57.746Z,13.24
2023-02-20T09:59:57.951Z,13.77
2023-02-20T10:05:01.624Z,14.20
2023-02-20T10:09:57.652Z,14.16
2023-02-20T10:14:57.432Z,13.80
2023-02-20T10:21:25.984Z,14.13
2023-02-20T10:28:16.470Z,13.84
2023-02-20T10:35:48.458Z,14.16
2023-02-20T10:40:48.359Z,14.09
2023-02-20T10:45:48.364Z,14.21
2023-02-20T10:51:00.757Z,14.81
2023-02-20T10:55:48.197Z,14.90
2023-02-20T11:02:45.071Z,14.25
2023-02-20T11:07:44.904Z,14.68
2023-02-20T11:12:44.765Z,14.35
2023-02-20T11:17:44.803Z,14.84
2023-02-20T11:22:44.554Z,15.02
2023-02-20T11:27:44.797Z,15.08
2023-02-20T11:32:44.557Z,15.57
2023-02-20T11:37:54.354Z,15.15
2023-02-20T11:45:31.772Z,15.39
2023-02-20T11:50:31.587Z,15.08
2023-02-20T11:55:31.496Z,15.09
2023-02-20T12:02:00.266Z,15.82
2023-02-20T12:09:30.861Z,16.12
2023-02-20T12:14:30.675Z,16.00
2023-02-20T12:57:34.086Z,16.77
2023-02-20T13:11:31.983Z,16.33
2023-02-20T13:48:49.667Z,16.89
2023-02-20T13:57:40.904Z,16.74
2023-02-20T14:02:40.953Z,17.11
2023-02-20T14:07:41.206Z,17.76
2023-02-20T14:12:40.846Z,17.78
2023-02-20T14:32:47.464Z,17.67
2023-02-20T14:37:46.598Z,17.32
2023-02-20T14:42:46.341Z,16.85
2023-02-20T14:47:46.416Z,16.53
2023-02-20T14:52:46.601Z,16.48
2023-02-20T14:57:46.171Z,16.73
2023-02-20T15:02:46.344Z,16.58
2023-02-20T15:09:38.776Z,16.38
2023-02-20T15:14:37.776Z,16.20
2023-02-20T15:19:37.686Z,16.03
2023-02-20T15:24:37.945Z,15.76
2023-02-20T15:31:56.300Z,16.33
2023-02-20T15:38:35.697Z,16.26
2023-02-20T15:47:15.433Z,15.82
2023-02-20T15:56:50.968Z,15.94
2023-02-20T16:14:36.422Z,15.63
2023-02-20T16:34:22.160Z,15.21
2023-02-20T16:49:35.707Z,14.86
2023-02-20T16:57:46.592Z,15.09
2023-02-20T17:02:46.317Z,14.98
2023-02-20T17:07:46.364Z,14.99
2023-02-20T17:14:03.593Z,15.38
2023-02-20T17:21:57.416Z,14.49
2023-02-20T17:37:57.679Z,14.57
2023-02-20T17:42:58.085Z,14.50
2023-02-20T17:47:57.666Z,14.56
2023-02-20T17:55:06.888Z,14.37
2023-02-20T18:02:16.169Z,14.20
2023-02-20T18:18:44.415Z,14.20
2023-02-20T18:23:44.205Z,13.99
2023-02-20T18:33:51.656Z,14.50
2023-02-20T18:38:51.335Z,14.39
2023-02-20T18:43:51.410Z,14.19
2023-02-20T18:48:51.064Z,14.24
2023-02-20T18:53:51.710Z,14.42
2023-02-20T19:14:05.652Z,13.81
2023-02-20T19:19:03.248Z,13.83
2023-02-20T19:24:02.524Z,14.01
2023-02-20T19:29:02.589Z,13.83
2023-02-20T19:34:02.338Z,13.81
2023-02-20T19:39:02.332Z,14.01
2023-02-20T19:45:48.339Z,14.09
2023-02-20T19:52:07.508Z,14.07
2023-02-20T19:57:07.499Z,13.56
2023-02-20T20:02:07.516Z,13.95
2023-02-20T20:08:34.746Z,13.95
2023-02-20T20:13:34.867Z,13.74
2023-02-20T20:18:35.287Z,13.70
2023-02-20T20:23:34.593Z,13.54
2023-02-20T20:28:34.667Z,13.41
2023-02-20T20:33:34.386Z,13.59
2023-02-20T20:38:34.345Z,13.24
2023-02-20T20:43:34.252Z,13.46
2023-02-20T20:48:34.241Z,13.67
2023-02-20T20:53:34.206Z,13.52
2023-02-20T20:58:37.134Z,13.41
2023-02-20T21:03:34.217Z,13.03
2023-02-20T21:08:34.021Z,12.95
2023-02-20T21:13:33.852Z,13.00
2023-02-20T21:18:33.834Z,13.06
2023-02-20T21:23:34.691Z,12.92
2023-02-20T21:28:34.484Z,12.97
2023-02-20T21:33:33.619Z,12.63
2023-02-20T21:38:33.788Z,12.78
2023-02-20T21:43:33.537Z,13.03
2023-02-20T21:48:33.527Z,12.88
2023-02-20T21:53:33.357Z,12.77
2023-02-20T21:58:38.011Z,12.77
2023-02-20T22:03:33.261Z,12.78
2023-02-20T22:08:33.319Z,12.37
2023-02-20T22:13:33.192Z,12.59
2023-02-20T22:18:33.765Z,12.11
2023-02-20T22:23:32.971Z,12.12
2023-02-20T22:28:33.119Z,11.82
2023-02-20T22:33:33.168Z,12.19
2023-02-20T22:38:33.539Z,12.15
2023-02-20T22:43:32.877Z,12.12
2023-02-20T22:48:32.755Z,12.23
2023-02-20T22:53:32.673Z,11.70
2023-02-20T22:58:43.649Z,12.38
2023-02-20T23:03:32.600Z,11.83
2023-02-20T23:08:32.512Z,11.99
2023-02-20T23:13:32.404Z,12.15
2023-02-20T23:18:32.419Z,12.19
2023-02-20T23:23:32.429Z,12.15
2023-02-20T23:28:37.368Z,12.12
2023-02-20T23:33:33.179Z,12.34
2023-02-20T23:38:32.142Z,12.04
2023-02-20T23:43:32.186Z,12.19
2023-02-20T23:48:31.986Z,12.04
2023-02-20T23:53:32.185Z,12.48
2023-02-20T23:58:35.161Z,12.08
